createdAt,value
2023-01-02T00:00:49.439Z,13.38
2023-01-02T00:02:52.319Z,13.36
2023-01-02T00:04:56.405Z,13.35
2023-01-02T00:06:59.072Z,13.30
2023-01-02T00:09:02.065Z,13.24
2023-01-02T00:11:04.756Z,13.31
2023-01-02T00:13:07.346Z,13.31
2023-01-02T00:15:10.621Z,13.28
2023-01-02T00:17:13.279Z,13.31
2023-01-02T00:19:15.918Z,13.39
2023-01-02T00:21:19.988Z,13.36
2023-01-02T00:23:22.587Z,13.36
2023-01-02T00:25:25.315Z,13.37
2023-01-02T00:27:28.009Z,13.33
2023-01-02T00:29:31.371Z,13.27
2023-01-02T00:31:34.083Z,13.24
2023-01-02T00:33:37.344Z,13.19
2023-01-02T00:35:40.074Z,13.31
2023-01-02T00:37:44.122Z,13.22
2023-01-02T00:39:46.732Z,13.14
2023-01-02T00:41:49.358Z,13.16
2023-01-02T00:43:52.221Z,13.22
2023-01-02T00:45:55.095Z,13.12
2023-01-02T00:47:57.738Z,13.09
2023-01-02T00:50:00.434Z,13.02
2023-01-02T00:52:03.372Z,13.03
2023-01-02T00:54:07.643Z,13.01
2023-01-02T00:56:10.285Z,13.05
2023-01-02T00:58:13.633Z,13.05
2023-01-02T01:00:23.692Z,13.10
2023-01-02T01:02:26.934Z,13.18
2023-01-02T01:04:29.832Z,13.22
2023-01-02T01:06:33.704Z,13.29
2023-01-02T01:08:36.694Z,13.38
2023-01-02T01:10:40.859Z,13.39
2023-01-02T01:12:43.617Z,13.43
2023-01-02T01:14:46.223Z,13.36
2023-01-02T01:16:48.933Z,13.46
2023-01-02T01:18:56.000Z,13.46
2023-01-02T01:20:58.607Z,13.43
2023-01-02T01:23:01.250Z,13.41
2023-01-02T01:25:04.206Z,13.47
2023-01-02T01:27:08.214Z,13.45
2023-01-02T01:29:10.880Z,13.50
2023-01-02T01:31:15.372Z,13.50
2023-01-02T01:33:17.997Z,13.57
2023-01-02T01:35:20.663Z,13.61
2023-01-02T01:37:23.316Z,13.54
2023-01-02T01:39:25.950Z,13.48
2023-01-02T01:41:28.780Z,13.42
2023-01-02T01:43:41.498Z,13.34
2023-01-02T01:45:45.156Z,13.31
2023-01-02T01:47:50.822Z,13.29
2023-01-02T01:50:05.031Z,13.27
2023-01-02T01:52:12.593Z,13.26
2023-01-02T01:54:18.074Z,13.25
2023-01-02T01:56:20.866Z,13.18
2023-01-02T01:58:27.879Z,13.15
2023-01-02T02:00:32.369Z,13.20
2023-01-02T02:02:35.789Z,13.25
2023-01-02T02:04:38.937Z,13.17
2023-01-02T02:06:41.839Z,13.18
2023-01-02T02:08:51.184Z,13.24
2023-01-02T02:10:54.369Z,13.14
2023-01-02T02:12:57.006Z,13.05
2023-01-02T02:14:59.578Z,13.10
2023-01-02T02:17:10.871Z,13.10
2023-01-02T02:19:42.000Z,13.10
2023-01-02T02:22:12.474Z,13.05
2023-01-02T02:24:37.452Z,13.16
2023-01-02T02:27:00.914Z,13.05
2023-01-02T02:29:48.751Z,13.02
2023-01-02T02:32:00.189Z,13.07
2023-01-02T02:34:11.890Z,13.04
2023-01-02T02:36:22.826Z,13.08
2023-01-02T02:38:37.277Z,13.03
2023-01-02T02:40:54.046Z,13.11
2023-01-02T02:43:06.412Z,13.16
2023-01-02T02:45:18.060Z,13.18
2023-01-02T02:47:31.620Z,13.11
2023-01-02T02:49:46.305Z,13.08
2023-01-02T02:51:54.260Z,13.17
2023-01-02T02:54:01.945Z,13.13
2023-01-02T02:56:08.453Z,13.06
2023-01-02T02:58:13.082Z,13.01
2023-01-02T03:00:18.913Z,13.09
2023-01-02T03:02:23.213Z,13.08
2023-01-02T03:04:26.253Z,13.08
2023-01-02T03:06:50.341Z,12.94
2023-01-02T03:09:07.473Z,12.93
2023-01-02T03:11:11.881Z,12.96
2023-01-02T03:13:19.994Z,12.89
2023-01-02T03:15:29.375Z,12.84
2023-01-02T03:17:48.664Z,12.97
2023-01-02T03:19:58.855Z,13.24
2023-01-02T03:22:04.634Z,12.95
2023-01-02T03:24:11.218Z,13.07
2023-01-02T03:26:16.121Z,13.08
2023-01-02T03:28:23.516Z,13.14
2023-01-02T03:30:26.411Z,13.29
2023-01-02T03:32:32.264Z,13.35
2023-01-02T03:34:40.249Z,13.36
2023-01-02T03:36:45.403Z,13.33
2023-01-02T03:38:56.199Z,13.31
2023-01-02T03:41:07.673Z,13.35
2023-01-02T03:43:15.870Z,13.38
2023-01-02T03:45:23.869Z,13.17
2023-01-02T03:47:33.552Z,13.15
2023-01-02T03:49:42.709Z,13.05
2023-01-02T03:51:45.457Z,13.12
2023-01-02T03:53:50.110Z,12.96
2023-01-02T03:56:08.754Z,12.89
2023-01-02T03:58:18.251Z,12.83
2023-01-02T04:00:22.238Z,12.88
2023-01-02T04:02:32.904Z,12.73
2023-01-02T04:04:45.425Z,12.73
2023-01-02T04:06:56.470Z,12.72
2023-01-02T04:09:05.043Z,12.69
2023-01-02T04:11:09.546Z,12.74
2023-01-02T04:13:17.220Z,12.72
2023-01-02T04:15:23.244Z,12.76
2023-01-02T04:17:29.373Z,12.74
2023-01-02T04:19:36.281Z,12.80
2023-01-02T04:21:42.507Z,12.86
2023-01-02T04:23:49.078Z,12.77
2023-01-02T04:25:57.238Z,12.80
2023-01-02T04:28:03.566Z,12.65
2023-01-02T04:30:07.386Z,12.74
2023-01-02T04:32:16.108Z,12.71
2023-01-02T04:34:20.816Z,12.71
2023-01-02T04:36:23.578Z,12.61
2023-01-02T04:38:27.561Z,12.64
2023-01-02T04:40:31.896Z,12.64
2023-01-02T04:42:34.627Z,12.57
2023-01-02T04:44:37.326Z,12.55
2023-01-02T04:46:40.073Z,12.53
2023-01-02T04:48:42.732Z,12.53
2023-01-02T04:50:46.038Z,12.50
2023-01-02T04:52:48.713Z,12.44
2023-01-02T04:54:52.743Z,12.39
2023-01-02T04:56:55.439Z,12.38
2023-01-02T04:58:58.082Z,12.43
2023-01-02T05:01:00.984Z,12.48
2023-01-02T05:03:04.228Z,12.35
2023-01-02T05:05:08.719Z,12.32
2023-01-02T05:07:11.383Z,12.25
2023-01-02T05:09:15.966Z,12.24
2023-01-02T05:11:23.559Z,12.19
2023-01-02T05:13:26.261Z,12.07
2023-01-02T05:15:29.237Z,11.99
2023-01-02T05:17:35.365Z,12.06
2023-01-02T05:19:37.989Z,12.01
2023-01-02T05:21:58.104Z,12.05
2023-01-02T05:24:02.628Z,12.03
2023-01-02T05:26:11.961Z,11.90
2023-01-02T05:28:15.949Z,11.90
2023-01-02T05:30:18.649Z,11.87
2023-01-02T05:32:21.257Z,11.87
2023-01-02T05:34:23.856Z,11.94
2023-01-02T05:36:27.579Z,11.84
2023-01-02T05:38:32.149Z,11.91
2023-01-02T05:40:34.815Z,12.11
2023-01-02T05:42:37.445Z,12.23
2023-01-02T05:44:41.464Z,12.23
2023-01-02T05:46:44.180Z,12.21
2023-01-02T05:48:47.530Z,12.11
2023-01-02T05:50:50.223Z,12.23
2023-01-02T05:52:54.439Z,12.10
2023-01-02T05:54:57.013Z,12.07
2023-01-02T05:56:59.652Z,12.10
2023-01-02T05:59:02.299Z,12.06
2023-01-02T06:01:07.706Z,12.02
2023-01-02T06:03:10.372Z,11.99
2023-01-02T06:05:13.018Z,11.94
2023-01-02T06:07:15.608Z,11.96
2023-01-02T06:09:18.685Z,11.92
2023-01-02T06:11:21.361Z,11.89
2023-01-02T06:13:23.990Z,11.95
2023-01-02T06:15:26.581Z,12.00
2023-01-02T06:17:30.536Z,11.97
2023-01-02T06:19:33.163Z,11.83
2023-01-02T06:21:35.759Z,11.74
2023-01-02T06:23:38.832Z,11.68
2023-01-02T06:25:41.555Z,11.73
2023-01-02T06:27:44.137Z,11.62
2023-01-02T06:29:46.924Z,11.65
2023-01-02T06:31:51.802Z,11.52
2023-01-02T06:33:57.347Z,11.69
2023-01-02T06:36:01.088Z,11.64
2023-01-02T06:38:03.779Z,11.73
2023-01-02T06:40:07.595Z,11.69
2023-01-02T06:42:10.206Z,11.59
2023-01-02T06:44:14.363Z,11.68
2023-01-02T06:46:18.644Z,11.71
2023-01-02T06:48:21.324Z,11.62
2023-01-02T06:50:31.243Z,11.61
2023-01-02T06:52:37.266Z,11.58
2023-01-02T06:54:39.838Z,11.45
2023-01-02T06:56:42.478Z,11.41
2023-01-02T06:58:45.555Z,11.39
2023-01-02T07:00:48.558Z,11.43
2023-01-02T07:02:51.168Z,11.36
2023-01-02T07:04:53.788Z,11.54
2023-01-02T07:06:57.688Z,11.51
2023-01-02T07:09:00.301Z,11.44
2023-01-02T07:11:11.507Z,11.59
2023-01-02T07:13:14.136Z,11.61
2023-01-02T07:15:16.742Z,11.70
2023-01-02T07:17:19.338Z,11.83
2023-01-02T07:19:21.906Z,11.77
2023-01-02T07:21:24.736Z,11.93
2023-01-02T07:23:28.952Z,12.03
2023-01-02T07:25:31.618Z,12.08
2023-01-02T07:27:34.658Z,12.21
2023-01-02T07:29:37.281Z,12.33
2023-01-02T07:31:40.029Z,12.33
2023-01-02T07:33:43.345Z,12.34
2023-01-02T07:35:46.002Z,12.52
2023-01-02T07:37:48.652Z,12.47
2023-01-02T07:39:52.648Z,12.67
2023-01-02T07:41:56.200Z,12.68
2023-01-02T07:43:58.853Z,12.72
2023-01-02T07:46:05.084Z,12.89
2023-01-02T07:48:07.940Z,12.85
2023-01-02T07:50:10.776Z,12.80
2023-01-02T07:52:13.429Z,12.93
2023-01-02T07:54:16.091Z,13.02
2023-01-02T07:56:20.055Z,13.01
2023-01-02T07:58:22.728Z,13.01
2023-01-02T08:00:25.426Z,12.94
2023-01-02T08:02:28.178Z,12.98
2023-01-02T08:04:30.930Z,12.90
2023-01-02T08:06:34.318Z,12.81
2023-01-02T08:08:37.897Z,12.85
2023-01-02T08:10:40.770Z,12.81
2023-01-02T08:12:44.701Z,12.76
2023-01-02T08:14:47.329Z,12.73
2023-01-02T08:16:50.077Z,12.66
2023-01-02T08:18:55.469Z,12.59
2023-01-02T08:20:58.206Z,12.54
2023-01-02T08:23:00.881Z,12.51
2023-01-02T08:25:03.637Z,12.54
2023-01-02T08:27:06.248Z,12.56
2023-01-02T08:29:10.207Z,12.52
2023-01-02T08:31:15.000Z,12.58
2023-01-02T08:33:17.725Z,12.45
2023-01-02T08:35:34.593Z,12.49
2023-01-02T08:37:42.498Z,12.53
2023-01-02T08:39:48.109Z,12.60
2023-01-02T08:41:50.741Z,12.61
2023-01-02T08:43:53.357Z,12.68
2023-01-02T08:45:57.352Z,12.63
2023-01-02T08:48:00.113Z,12.66
2023-01-02T08:50:02.714Z,12.69
2023-01-02T08:52:05.847Z,12.76
2023-01-02T08:54:08.575Z,12.89
2023-01-02T08:56:22.132Z,12.83
2023-01-02T08:58:24.733Z,12.86
2023-01-02T09:00:27.413Z,12.96
2023-01-02T09:02:31.609Z,12.93
2023-01-02T09:04:34.388Z,13.03
2023-01-02T09:06:37.761Z,13.26
2023-01-02T09:08:40.522Z,13.23
2023-01-02T09:10:43.109Z,13.00
2023-01-02T09:12:45.735Z,13.22
2023-01-02T09:14:48.388Z,13.09
2023-01-02T09:16:52.278Z,13.10
2023-01-02T09:18:59.248Z,13.03
2023-01-02T09:21:01.907Z,13.23
2023-01-02T09:23:04.504Z,13.21
2023-01-02T09:25:08.309Z,13.25
2023-01-02T09:27:11.015Z,13.48
2023-01-02T09:29:14.526Z,13.37
2023-01-02T09:31:18.600Z,13.35
2023-01-02T09:33:21.871Z,13.64
2023-01-02T09:35:25.874Z,13.79
2023-01-02T09:37:28.602Z,13.77
2023-01-02T09:39:32.902Z,14.25
2023-01-02T09:41:38.084Z,14.15
2023-01-02T09:43:45.121Z,13.80
2023-01-02T09:45:48.858Z,13.70
2023-01-02T09:47:52.970Z,13.78
2023-01-02T09:49:58.811Z,13.76
2023-01-02T09:52:02.795Z,13.73
2023-01-02T09:54:08.047Z,13.80
2023-01-02T09:56:22.410Z,13.83
2023-01-02T09:58:34.627Z,13.84
2023-01-02T10:00:38.879Z,13.85
2023-01-02T10:02:51.765Z,14.00
2023-01-02T10:05:10.045Z,14.01
2023-01-02T10:07:21.708Z,14.21
2023-01-02T10:09:33.286Z,14.15
2023-01-02T10:11:51.967Z,14.13
2023-01-02T10:16:31.345Z,14.46
2023-01-02T10:18:39.560Z,14.57
2023-01-02T10:20:45.857Z,14.76
2023-01-02T10:22:52.275Z,14.87
2023-01-02T10:25:02.390Z,14.80
2023-01-02T10:27:06.944Z,15.01
2023-01-02T10:29:17.909Z,15.02
2023-01-02T10:31:25.464Z,15.08
2023-01-02T10:33:36.461Z,15.03
2023-01-02T10:35:42.863Z,15.03
2023-01-02T10:37:45.546Z,15.05
2023-01-02T10:39:51.469Z,15.06
2023-01-02T10:41:57.673Z,15.05
2023-01-02T10:44:03.208Z,15.07
2023-01-02T10:46:06.253Z,15.09
2023-01-02T10:48:10.851Z,15.29
2023-01-02T10:50:19.799Z,15.03
2023-01-02T10:52:28.385Z,15.11
2023-01-02T10:54:30.977Z,15.14
2023-01-02T10:56:37.420Z,15.17
2023-01-02T10:58:45.781Z,15.29
2023-01-02T11:00:50.129Z,15.31
2023-01-02T11:02:55.170Z,15.38
2023-01-02T11:05:02.707Z,15.43
2023-01-02T11:07:05.474Z,15.47
2023-01-02T11:09:19.751Z,15.19
2023-01-02T11:11:24.123Z,15.21
2023-01-02T11:13:43.034Z,15.34
2023-01-02T11:15:50.397Z,15.46
2023-01-02T11:17:53.129Z,15.60
2023-01-02T11:19:57.719Z,15.76
2023-01-02T11:22:00.430Z,15.68
2023-01-02T11:24:06.032Z,15.70
2023-01-02T11:26:20.358Z,15.61
2023-01-02T11:28:26.291Z,15.67
2023-01-02T11:30:36.960Z,15.76
2023-01-02T11:32:41.855Z,15.48
2023-01-02T11:34:57.165Z,15.60
2023-01-02T11:37:15.380Z,15.35
2023-01-02T11:39:23.359Z,15.16
2023-01-02T11:41:44.590Z,15.37
2023-01-02T11:43:54.111Z,15.20
2023-01-02T11:45:58.169Z,15.32
2023-01-02T11:48:04.233Z,15.42
2023-01-02T11:50:07.854Z,15.53
2023-01-02T11:52:14.137Z,15.60
2023-01-02T11:54:23.020Z,15.61
2023-01-02T11:56:31.158Z,15.52
2023-01-02T11:58:43.243Z,15.36
2023-01-02T12:00:49.766Z,15.38
2023-01-02T12:02:55.164Z,15.24
2023-01-02T12:04:58.062Z,15.36
2023-01-02T12:07:29.956Z,15.20
2023-01-02T12:09:43.252Z,15.18
2023-01-02T12:12:02.656Z,15.13
2023-01-02T12:14:15.028Z,15.20
2023-01-02T12:16:30.897Z,15.20
2023-01-02T12:18:49.390Z,15.21
2023-01-02T12:21:00.929Z,15.17
2023-01-02T12:23:29.398Z,15.33
2023-01-02T12:25:43.602Z,15.40
2023-01-02T12:27:55.351Z,15.52
2023-01-02T12:30:05.710Z,15.47
2023-01-02T12:32:33.179Z,15.36
2023-01-02T12:34:52.911Z,15.60
2023-01-02T12:37:11.863Z,15.60
2023-01-02T12:39:40.812Z,15.68
2023-01-02T12:42:02.054Z,16.04
2023-01-02T12:44:22.237Z,15.98
2023-01-02T12:46:43.759Z,15.98
2023-01-02T12:49:00.342Z,15.87
2023-01-02T12:51:18.062Z,15.81
2023-01-02T12:53:31.885Z,15.74
2023-01-02T12:55:48.181Z,15.85
2023-01-02T12:57:56.285Z,16.03
2023-01-02T13:00:25.545Z,15.92
2023-01-02T13:02:43.938Z,15.94
2023-01-02T13:04:51.047Z,15.86
2023-01-02T13:06:59.745Z,16.00
2023-01-02T13:09:06.139Z,15.94
2023-01-02T13:11:12.103Z,15.77
2023-01-02T13:13:16.236Z,15.84
2023-01-02T13:15:23.219Z,16.23
2023-01-02T13:17:37.810Z,16.39
2023-01-02T13:19:49.886Z,16.41
2023-01-02T13:22:02.553Z,16.11
2023-01-02T13:24:05.848Z,16.20
2023-01-02T13:26:10.929Z,16.43
2023-01-02T13:28:14.693Z,16.28
2023-01-02T13:30:44.023Z,16.25
2023-01-02T13:32:48.870Z,16.15
2023-01-02T13:34:53.561Z,16.18
2023-01-02T13:37:04.686Z,16.19
2023-01-02T13:39:19.466Z,16.07
2023-01-02T13:41:23.004Z,15.94
2023-01-02T13:43:30.748Z,15.99
2023-01-02T13:45:38.266Z,15.99
2023-01-02T13:47:51.577Z,15.85
2023-01-02T13:49:59.461Z,15.83
2023-01-02T13:52:03.515Z,15.75
2023-01-02T13:54:15.411Z,15.82
2023-01-02T13:56:20.786Z,15.74
2023-01-02T13:58:42.089Z,15.78
2023-01-02T14:00:51.643Z,15.59
2023-01-02T14:03:19.060Z,15.61
2023-01-02T14:05:59.870Z,15.59
2023-01-02T14:08:25.851Z,15.65
2023-01-02T14:10:35.752Z,15.59
2023-01-02T14:12:43.373Z,15.70
2023-01-02T14:14:51.437Z,15.48
2023-01-02T14:17:06.363Z,15.48
2023-01-02T14:19:25.110Z,15.55
2023-01-02T14:21:34.364Z,15.46
2023-01-02T14:24:16.338Z,15.50
2023-01-02T14:26:06.261Z,15.40
2023-01-02T14:28:08.946Z,15.42
2023-01-02T14:30:15.179Z,15.40
2023-01-02T14:32:22.576Z,15.38
2023-01-02T14:34:27.113Z,15.31
2023-01-02T14:36:41.328Z,15.29
2023-01-02T14:38:55.132Z,15.34
2023-01-02T14:41:18.438Z,15.24
2023-01-02T14:43:31.776Z,15.22
2023-01-02T14:45:35.733Z,15.14
2023-01-02T14:47:39.999Z,15.18
2023-01-02T14:49:44.563Z,15.11
2023-01-02T14:51:55.958Z,15.06
2023-01-02T14:54:02.453Z,15.01
2023-01-02T14:56:06.880Z,15.00
2023-01-02T14:58:18.051Z,14.92
2023-01-02T15:00:29.402Z,14.93
2023-01-02T15:02:42.276Z,14.88
2023-01-02T15:04:50.107Z,14.80
2023-01-02T15:07:07.686Z,14.77
2023-01-02T15:09:18.733Z,14.77
2023-01-02T15:11:40.925Z,14.67
2023-01-02T15:14:04.708Z,14.71
2023-01-02T15:16:11.364Z,14.54
2023-01-02T15:18:21.303Z,14.49
2023-01-02T15:20:26.516Z,14.38
2023-01-02T15:22:31.448Z,14.36
2023-01-02T15:24:35.539Z,14.27
2023-01-02T15:26:40.036Z,14.18
2023-01-02T15:28:42.862Z,14.12
2023-01-02T15:30:47.012Z,14.13
2023-01-02T15:32:49.929Z,14.04
2023-01-02T15:34:53.126Z,13.95
2023-01-02T15:36:57.500Z,13.89
2023-01-02T15:39:09.909Z,13.84
2023-01-02T15:41:19.252Z,13.85
2023-01-02T15:43:39.541Z,13.73
2023-01-02T15:45:45.898Z,13.64
2023-01-02T15:47:50.386Z,13.61
2023-01-02T15:49:53.228Z,13.57
2023-01-02T15:51:57.434Z,13.54
2023-01-02T15:54:03.376Z,13.59
2023-01-02T15:56:07.466Z,13.47
2023-01-02T15:58:24.732Z,13.38
2023-01-02T16:00:36.493Z,13.31
2023-01-02T16:02:43.879Z,13.29
2023-01-02T16:04:46.811Z,13.28
2023-01-02T16:06:49.558Z,13.21
2023-01-02T16:08:54.926Z,13.22
2023-01-02T16:11:02.025Z,13.22
2023-01-02T16:13:28.810Z,13.15
2023-01-02T16:15:36.581Z,13.11
2023-01-02T16:17:40.936Z,13.03
2023-01-02T16:19:57.982Z,13.03
2023-01-02T16:22:09.084Z,12.95
2023-01-02T16:24:12.989Z,12.95
2023-01-02T16:26:16.013Z,12.80
2023-01-02T16:28:35.544Z,12.82
2023-01-02T16:30:43.278Z,12.66
2023-01-02T16:32:48.820Z,12.66
2023-01-02T16:35:00.828Z,12.65
2023-01-02T16:37:11.542Z,12.63
2023-01-02T16:39:43.090Z,12.57
2023-01-02T16:42:12.058Z,12.48
2023-01-02T16:44:16.899Z,12.44
2023-01-02T16:46:19.614Z,12.43
2023-01-02T16:48:25.301Z,12.44
2023-01-02T16:50:28.645Z,12.40
2023-01-02T16:52:31.541Z,12.32
2023-01-02T16:54:34.196Z,12.33
2023-01-02T16:56:38.153Z,12.35
2023-01-02T16:58:40.804Z,12.38
2023-01-02T17:00:43.959Z,12.23
2023-01-02T17:02:47.542Z,12.19
2023-01-02T17:04:50.305Z,12.22
2023-01-02T17:06:55.036Z,12.20
2023-01-02T17:08:57.704Z,12.14
2023-01-02T17:11:00.706Z,12.10
2023-01-02T17:13:05.409Z,12.10
2023-01-02T17:15:09.481Z,12.07
2023-01-02T17:17:12.081Z,12.10
2023-01-02T17:19:14.656Z,12.06
2023-01-02T17:21:17.257Z,12.03
2023-01-02T17:23:20.226Z,11.98
2023-01-02T17:25:23.342Z,11.96
2023-01-02T17:27:26.000Z,11.97
2023-01-02T17:29:31.482Z,12.03
2023-01-02T17:31:34.118Z,12.00
2023-01-02T17:33:36.781Z,11.98
2023-01-02T17:35:39.628Z,11.94
2023-01-02T17:37:42.754Z,11.98
2023-01-02T17:39:45.919Z,12.05
2023-01-02T17:41:49.379Z,12.03
2023-01-02T17:44:01.994Z,11.96
2023-01-02T17:46:38.820Z,12.05
2023-01-02T17:48:31.467Z,12.03
2023-01-02T17:50:34.129Z,12.02
2023-01-02T17:52:38.064Z,11.99
2023-01-02T17:54:40.880Z,12.01
2023-01-02T17:56:43.479Z,11.93
2023-01-02T17:58:46.644Z,11.98
2023-01-02T18:00:49.614Z,12.10
2023-01-02T18:02:54.197Z,11.95
2023-01-02T18:04:57.003Z,11.96
2023-01-02T18:07:01.348Z,11.91
2023-01-02T18:09:04.785Z,11.98
2023-01-02T18:11:08.720Z,11.96
2023-01-02T18:13:12.255Z,11.99
2023-01-02T18:15:16.597Z,11.95
2023-01-02T18:17:30.078Z,11.86
2023-01-02T18:19:37.638Z,11.87
2023-01-02T18:21:40.341Z,11.88
2023-01-02T18:23:43.550Z,11.89
2023-01-02T18:25:46.218Z,11.82
2023-01-02T18:27:49.657Z,11.85
2023-01-02T18:30:00.762Z,11.83
2023-01-02T18:32:09.364Z,11.85
2023-01-02T18:34:46.600Z,11.83
2023-01-02T18:36:42.660Z,11.73
2023-01-02T18:38:45.429Z,11.76
2023-01-02T18:40:48.084Z,11.72
2023-01-02T18:42:55.132Z,11.74
2023-01-02T18:45:00.817Z,11.88
2023-01-02T18:47:09.995Z,11.88
2023-01-02T18:49:18.733Z,11.70
2023-01-02T18:51:24.077Z,11.61
2023-01-02T18:53:31.458Z,11.47
2023-01-02T18:55:40.335Z,11.39
2023-01-02T18:57:47.431Z,11.37
2023-01-02T18:59:51.243Z,11.21
2023-01-02T19:01:57.862Z,11.03
2023-01-02T19:04:22.442Z,11.09
2023-01-02T19:06:29.559Z,11.02
2023-01-02T19:08:37.312Z,10.92
2023-01-02T19:10:42.154Z,10.88
2023-01-02T19:13:07.778Z,10.78
2023-01-02T19:15:33.262Z,10.85
2023-01-02T19:17:35.959Z,10.79
2023-01-02T19:19:40.778Z,10.69
2023-01-02T19:21:43.959Z,10.64
2023-01-02T19:23:52.568Z,10.62
2023-01-02T19:25:56.397Z,10.64
2023-01-02T19:27:59.546Z,10.59
2023-01-02T19:30:02.171Z,10.71
2023-01-02T19:32:24.044Z,10.62
2023-01-02T19:34:37.883Z,10.67
2023-01-02T19:36:40.970Z,10.51
2023-01-02T19:38:44.191Z,10.51
2023-01-02T19:40:48.149Z,10.50
2023-01-02T19:42:52.391Z,10.57
2023-01-02T19:44:56.781Z,10.44
2023-01-02T19:46:59.403Z,10.47
2023-01-02T19:49:02.113Z,10.35
2023-01-02T19:51:05.020Z,10.44
2023-01-02T19:53:07.643Z,10.50
2023-01-02T19:55:11.620Z,10.54
2023-01-02T19:57:17.655Z,10.29
2023-01-02T19:59:20.456Z,10.22
2023-01-02T20:01:23.279Z,10.16
2023-01-02T20:03:26.150Z,10.39
2023-01-02T20:05:29.361Z,10.41
2023-01-02T20:07:32.542Z,10.24
2023-01-02T20:09:35.218Z,10.17
2023-01-02T20:11:55.642Z,10.00
2023-01-02T20:13:59.706Z,9.94
2023-01-02T20:16:02.378Z,10.10
2023-01-02T20:18:08.818Z,10.10
2023-01-02T20:20:13.202Z,10.13
2023-01-02T20:22:15.976Z,10.13
2023-01-02T20:24:18.595Z,10.13
2023-01-02T20:26:21.286Z,10.18
2023-01-02T20:28:23.941Z,10.08
2023-01-02T20:30:27.960Z,10.16
2023-01-02T20:32:30.669Z,10.09
2023-01-02T20:34:33.342Z,10.01
2023-01-02T20:36:35.993Z,10.07
2023-01-02T20:38:38.716Z,9.78
2023-01-02T20:40:41.340Z,9.83
2023-01-02T20:42:43.905Z,9.83
2023-01-02T20:44:46.958Z,9.89
2023-01-02T20:46:51.048Z,9.74
2023-01-02T20:48:53.714Z,9.63
2023-01-02T20:50:56.510Z,9.59
2023-01-02T20:52:59.137Z,9.73
2023-01-02T20:55:01.773Z,9.70
2023-01-02T20:57:04.441Z,9.68
2023-01-02T20:59:07.076Z,9.40
2023-01-02T21:01:09.655Z,9.50
2023-01-02T21:03:13.769Z,9.66
2023-01-02T21:05:16.636Z,9.71
2023-01-02T21:07:20.112Z,9.53
2023-01-02T21:09:22.782Z,9.46
2023-01-02T21:11:25.383Z,9.38
2023-01-02T21:13:28.021Z,9.37
2023-01-02T21:15:46.292Z,9.58
2023-01-02T21:17:48.992Z,9.44
2023-01-02T21:19:53.009Z,9.56
2023-01-02T21:21:55.625Z,9.44
2023-01-02T21:23:58.233Z,9.48
2023-01-02T21:26:00.933Z,9.33
2023-01-02T21:28:03.885Z,9.66
2023-01-02T21:30:07.659Z,9.65
2023-01-02T21:32:10.291Z,9.45
2023-01-02T21:34:13.642Z,9.48
2023-01-02T21:36:17.579Z,9.55
2023-01-02T21:38:21.684Z,9.57
2023-01-02T21:40:24.364Z,9.33
2023-01-02T21:42:25.995Z,9.46
2023-01-02T21:44:28.612Z,9.34
2023-01-02T21:46:31.394Z,9.50
2023-01-02T21:48:34.709Z,9.41
2023-01-02T21:50:37.677Z,9.55
2023-01-02T21:52:41.831Z,9.46
2023-01-02T21:54:44.558Z,9.46
2023-01-02T21:56:47.231Z,9.63
2023-01-02T21:58:49.853Z,9.40
2023-01-02T22:00:52.570Z,9.40
2023-01-02T22:02:56.044Z,9.43
2023-01-02T22:04:58.707Z,9.44
2023-01-02T22:07:30.839Z,9.45
2023-01-02T22:09:25.410Z,9.36
2023-01-02T22:11:46.196Z,9.40
2023-01-02T22:13:48.817Z,9.51
2023-01-02T22:15:51.486Z,9.48
2023-01-02T22:17:54.151Z,9.40
2023-01-02T22:19:56.954Z,9.39
2023-01-02T22:21:59.884Z,9.39
2023-01-02T22:24:02.602Z,9.41
2023-01-02T22:26:06.842Z,9.39
2023-01-02T22:28:09.523Z,9.22
2023-01-02T22:30:25.737Z,9.30
2023-01-02T22:32:35.034Z,9.30
2023-01-02T22:34:43.202Z,9.30
2023-01-02T22:36:46.313Z,9.38
2023-01-02T22:39:17.543Z,9.33
2023-01-02T22:41:13.307Z,9.37
2023-01-02T22:43:20.949Z,9.35
2023-01-02T22:45:28.968Z,9.39
2023-01-02T22:47:34.139Z,9.48
2023-01-02T22:49:39.489Z,9.40
2023-01-02T22:52:05.924Z,9.28
2023-01-02T22:54:05.020Z,9.26
2023-01-02T22:56:14.383Z,9.36
2023-01-02T22:58:17.602Z,9.21
2023-01-02T23:00:23.197Z,9.31
2023-01-02T23:02:26.097Z,9.09
2023-01-02T23:04:28.759Z,9.16
2023-01-02T23:06:31.530Z,9.20
2023-01-02T23:08:34.324Z,9.14
2023-01-02T23:10:36.987Z,9.15
2023-01-02T23:12:41.101Z,9.22
2023-01-02T23:14:43.934Z,9.23
2023-01-02T23:17:04.237Z,8.95
2023-01-02T23:19:14.985Z,9.01
2023-01-02T23:21:17.715Z,9.01
2023-01-02T23:23:20.292Z,8.96
2023-01-02T23:25:22.974Z,8.88
2023-01-02T23:27:25.675Z,8.97
2023-01-02T23:29:30.079Z,9.01
2023-01-02T23:31:32.770Z,9.09
2023-01-02T23:33:35.542Z,9.17
2023-01-02T23:35:38.255Z,9.24
2023-01-02T23:37:40.894Z,9.18
2023-01-02T23:39:43.564Z,9.23
2023-01-02T23:41:47.388Z,9.17
2023-01-02T23:43:51.376Z,9.07
2023-01-02T23:45:55.453Z,8.91
2023-01-02T23:47:58.188Z,9.00
2023-01-02T23:50:00.883Z,9.06
2023-01-02T23:52:04.773Z,9.09
2023-01-02T23:54:08.593Z,9.08
2023-01-02T23:56:18.535Z,9.12
2023-01-02T23:58:21.690Z,9.00
